sensor_id;sensor_type;location;lat;lon;timestamp;pressure;altitude;pressure_sealevel;temperature;humidity
49843;BME280;55559;48.898;9.184;2023-04-25T00:01:28;97817.28;;;7.82;100.00
49843;BME280;55559;48.898;9.184;2023-04-25T00:03:57;97809.50;;;7.80;100.00
49843;BME280;55559;48.898;9.184;2023-04-25T00:06:24;97811.44;;;7.78;100.00
49843;BME280;55559;48.898;9.184;2023-04-25T00:08:53;97809.66;;;7.89;100.00
49843;BME280;55559;48.898;9.184;2023-04-25T00:11:21;97807.44;;;7.94;100.00
49843;BME280;55559;48.898;9.184;2023-04-25T00:13:48;97809.53;;;7.90;100.00
49843;BME280;55559;48.898;9.184;2023-04-25T00:16:16;97806.75;;;7.92;100.00
49843;BME280;55559;48.898;9.184;2023-04-25T00:18:44;97805.47;;;7.96;100.00
49843;BME280;55559;48.898;9.184;2023-04-25T00:21:18;97804.06;;;7.82;100.00
49843;BME280;55559;48.898;9.184;2023-04-25T00:23:46;97815.22;;;7.86;100.00
49843;BME280;55559;48.898;9.184;2023-04-25T00:26:13;97801.84;;;7.87;100.00
49843;BME280;55559;48.898;9.184;2023-04-25T00:28:41;97803.94;;;7.83;100.00
49843;BME280;55559;48.898;9.184;2023-04-25T00:31:08;97806.44;;;7.85;100.00
49843;BME280;55559;48.898;9.184;2023-04-25T00:33:36;97811.75;;;7.85;100.00
49843;BME280;55559;48.898;9.184;2023-04-25T00:36:03;97803.41;;;7.90;100.00
49843;BME280;55559;48.898;9.184;2023-04-25T00:38:32;97803.25;;;7.91;100.00
49843;BME280;55559;48.898;9.184;2023-04-25T00:41:00;97806.75;;;7.92;100.00
49843;BME280;55559;48.898;9.184;2023-04-25T00:43:28;97809.38;;;7.92;100.00
49843;BME280;55559;48.898;9.184;2023-04-25T00:45:57;97805.78;;;7.93;100.00
49843;BME280;55559;48.898;9.184;2023-04-25T00:48:26;97797.84;;;7.93;100.00
49843;BME280;55559;48.898;9.184;2023-04-25T00:50:55;97796.28;;;7.90;100.00
49843;BME280;55559;48.898;9.184;2023-04-25T00:53:25;97789.72;;;7.85;100.00
49843;BME280;55559;48.898;9.184;2023-04-25T00:55:54;97777.19;;;7.87;100.00
49843;BME280;55559;48.898;9.184;2023-04-25T00:58:22;97780.38;;;7.80;100.00
49843;BME280;55559;48.898;9.184;2023-04-25T01:00:51;97776.47;;;7.75;100.00
49843;BME280;55559;48.898;9.184;2023-04-25T01:03:20;97771.72;;;7.69;100.00
49843;BME280;55559;48.898;9.184;2023-04-25T01:05:48;97781.47;;;7.68;100.00
49843;BME280;55559;48.898;9.184;2023-04-25T01:08:15;97780.63;;;7.68;100.00
49843;BME280;55559;48.898;9.184;2023-04-25T01:10:43;97781.59;;;7.67;100.00
49843;BME280;55559;48.898;9.184;2023-04-25T01:13:12;97772.44;;;7.71;100.00
49843;BME280;55559;48.898;9.184;2023-04-25T01:15:39;97778.38;;;7.63;100.00
49843;BME280;55559;48.898;9.184;2023-04-25T01:18:07;97790.34;;;7.57;100.00
49843;BME280;55559;48.898;9.184;2023-04-25T01:20:34;97788.16;;;7.62;100.00
49843;BME280;55559;48.898;9.184;2023-04-25T01:23:06;97778.69;;;7.70;100.00
49843;BME280;55559;48.898;9.184;2023-04-25T01:25:33;97782.72;;;7.64;100.00
49843;BME280;55559;48.898;9.184;2023-04-25T01:28:01;97789.63;;;7.55;100.00
49843;BME280;55559;48.898;9.184;2023-04-25T01:30:29;97776.41;;;7.55;100.00
49843;BME280;55559;48.898;9.184;2023-04-25T01:32:56;97778.66;;;7.60;100.00
49843;BME280;55559;48.898;9.184;2023-04-25T01:35:24;97778.34;;;7.53;100.00
49843;BME280;55559;48.898;9.184;2023-04-25T01:37:55;97772.75;;;7.47;100.00
49843;BME280;55559;48.898;9.184;2023-04-25T01:40:24;97772.88;;;7.35;100.00
49843;BME280;55559;48.898;9.184;2023-04-25T01:42:52;97765.22;;;7.32;100.00
49843;BME280;55559;48.898;9.184;2023-04-25T01:45:20;97771.59;;;7.30;100.00
49843;BME280;55559;48.898;9.184;2023-04-25T01:47:48;97778.81;;;7.28;100.00
49843;BME280;55559;48.898;9.184;2023-04-25T01:50:17;97777.44;;;7.33;100.00
49843;BME280;55559;48.898;9.184;2023-04-25T01:52:45;97775.66;;;7.34;100.00
49843;BME280;55559;48.898;9.184;2023-04-25T01:55:13;97775.78;;;7.32;100.00
49843;BME280;55559;48.898;9.184;2023-04-25T01:58:05;97772.16;;;7.33;100.00
49843;BME280;55559;48.898;9.184;2023-04-25T02:00:54;97778.44;;;7.32;100.00
49843;BME280;55559;48.898;9.184;2023-04-25T02:03:25;97761.00;;;7.30;100.00
49843;BME280;55559;48.898;9.184;2023-04-25T02:05:53;97778.00;;;7.37;100.00
49843;BME280;55559;48.898;9.184;2023-04-25T02:08:21;97768.47;;;7.45;100.00
49843;BME280;55559;48.898;9.184;2023-04-25T02:10:48;97770.81;;;7.49;100.00
49843;BME280;55559;48.898;9.184;2023-04-25T02:13:20;97763.47;;;7.52;100.00
49843;BME280;55559;48.898;9.184;2023-04-25T02:16:00;97769.47;;;7.54;100.00
49843;BME280;55559;48.898;9.184;2023-04-25T02:18:30;97760.53;;;7.55;100.00
49843;BME280;55559;48.898;9.184;2023-04-25T02:20:59;97764.72;;;7.58;100.00
49843;BME280;55559;48.898;9.184;2023-04-25T02:23:28;97771.41;;;7.62;100.00
49843;BME280;55559;48.898;9.184;2023-04-25T02:25:56;97762.09;;;7.58;100.00
49843;BME280;55559;48.898;9.184;2023-04-25T02:28:25;97752.47;;;7.57;100.00
49843;BME280;55559;48.898;9.184;2023-04-25T02:30:53;97757.88;;;7.55;100.00
49843;BME280;55559;48.898;9.184;2023-04-25T02:33:20;97758.00;;;7.44;100.00
49843;BME280;55559;48.898;9.184;2023-04-25T02:35:48;97765.00;;;7.55;100.00
49843;BME280;55559;48.898;9.184;2023-04-25T02:38:15;97762.50;;;7.63;100.00
49843;BME280;55559;48.898;9.184;2023-04-25T02:40:43;97755.31;;;7.75;100.00
49843;BME280;55559;48.898;9.184;2023-04-25T02:43:10;97754.91;;;7.79;100.00
49843;BME280;55559;48.898;9.184;2023-04-25T02:45:39;97752.38;;;7.78;100.00
49843;BME280;55559;48.898;9.184;2023-04-25T02:48:06;97749.75;;;7.78;100.00
49843;BME280;55559;48.898;9.184;2023-04-25T02:50:34;97754.75;;;7.81;100.00
49843;BME280;55559;48.898;9.184;2023-04-25T02:53:01;97758.66;;;7.87;100.00
49843;BME280;55559;48.898;9.184;2023-04-25T02:55:35;97756.00;;;7.87;100.00
49843;BME280;55559;48.898;9.184;2023-04-25T02:58:04;97746.97;;;7.89;100.00
49843;BME280;55559;48.898;9.184;2023-04-25T03:00:48;97753.09;;;7.90;100.00
49843;BME280;55559;48.898;9.184;2023-04-25T03:03:16;97744.16;;;7.91;100.00
49843;BME280;55559;48.898;9.184;2023-04-25T03:05:48;97747.81;;;7.90;100.00
49843;BME280;55559;48.898;9.184;2023-04-25T03:08:19;97739.31;;;7.86;100.00
49843;BME280;55559;48.898;9.184;2023-04-25T03:10:46;97736.53;;;7.88;100.00
49843;BME280;55559;48.898;9.184;2023-04-25T03:13:15;97738.59;;;7.84;100.00
49843;BME280;55559;48.898;9.184;2023-04-25T03:15:43;97739.03;;;7.79;100.00
49843;BME280;55559;48.898;9.184;2023-04-25T03:18:12;97727.16;;;7.74;100.00
49843;BME280;55559;48.898;9.184;2023-04-25T03:20:40;97728.69;;;7.76;100.00
49843;BME280;55559;48.898;9.184;2023-04-25T03:23:08;97730.53;;;7.76;100.00
49843;BME280;55559;48.898;9.184;2023-04-25T03:25:38;97735.91;;;7.64;100.00
49843;BME280;55559;48.898;9.184;2023-04-25T03:28:06;97731.19;;;7.68;100.00
49843;BME280;55559;48.898;9.184;2023-04-25T03:30:34;97726.44;;;7.62;100.00
49843;BME280;55559;48.898;9.184;2023-04-25T03:33:01;97732.00;;;7.69;100.00
49843;BME280;55559;48.898;9.184;2023-04-25T03:35:30;97727.00;;;7.75;100.00
49843;BME280;55559;48.898;9.184;2023-04-25T03:37:57;97733.84;;;7.78;100.00
49843;BME280;55559;48.898;9.184;2023-04-25T03:40:29;97733.00;;;7.77;100.00
49843;BME280;55559;48.898;9.184;2023-04-25T03:43:17;97738.47;;;7.76;100.00
49843;BME280;55559;48.898;9.184;2023-04-25T03:45:54;97730.78;;;7.73;100.00
49843;BME280;55559;48.898;9.184;2023-04-25T03:48:22;97729.13;;;7.81;100.00
49843;BME280;55559;48.898;9.184;2023-04-25T03:50:52;97725.50;;;7.82;100.00
49843;BME280;55559;48.898;9.184;2023-04-25T03:53:20;97723.44;;;7.86;100.00
49843;BME280;55559;48.898;9.184;2023-04-25T03:56:19;97726.47;;;7.81;100.00
49843;BME280;55559;48.898;9.184;2023-04-25T03:58:55;97725.63;;;7.71;100.00
49843;BME280;55559;48.898;9.184;2023-04-25T04:01:24;97729.53;;;7.77;100.00
49843;BME280;55559;48.898;9.184;2023-04-25T04:03:52;97729.78;;;7.74;100.00
49843;BME280;55559;48.898;9.184;2023-04-25T04:06:21;97726.03;;;7.67;100.00
49843;BME280;55559;48.898;9.184;2023-04-25T04:08:54;97730.09;;;7.71;100.00
49843;BME280;55559;48.898;9.184;2023-04-25T04:11:23;97720.19;;;7.73;100.00
49843;BME280;55559;48.898;9.184;2023-04-25T04:13:51;97721.28;;;7.70;100.00
49843;BME280;55559;48.898;9.184;2023-04-25T04:16:19;97717.97;;;7.68;100.00
49843;BME280;55559;48.898;9.184;2023-04-25T04:18:47;97728.69;;;7.67;100.00
49843;BME280;55559;48.898;9.184;2023-04-25T04:21:14;97728.66;;;7.57;100.00
49843;BME280;55559;48.898;9.184;2023-04-25T04:23:43;97725.06;;;7.68;100.00
49843;BME280;55559;48.898;9.184;2023-04-25T04:26:12;97731.72;;;7.62;100.00
49843;BME280;55559;48.898;9.184;2023-04-25T04:28:52;97730.59;;;7.55;100.00
49843;BME280;55559;48.898;9.184;2023-04-25T04:31:36;97738.94;;;7.50;100.00
49843;BME280;55559;48.898;9.184;2023-04-25T04:34:04;97738.81;;;7.52;100.00
49843;BME280;55559;48.898;9.184;2023-04-25T04:36:33;97738.28;;;7.58;100.00
49843;BME280;55559;48.898;9.184;2023-04-25T04:39:06;97731.13;;;7.49;100.00
49843;BME280;55559;48.898;9.184;2023-04-25T04:41:39;97734.50;;;7.51;100.00
49843;BME280;55559;48.898;9.184;2023-04-25T04:44:10;97747.44;;;7.54;100.00
49843;BME280;55559;48.898;9.184;2023-04-25T04:46:45;97753.31;;;7.67;100.00
49843;BME280;55559;48.898;9.184;2023-04-25T04:49:32;97754.28;;;7.56;100.00
49843;BME280;55559;48.898;9.184;2023-04-25T04:52:28;97760.25;;;7.58;100.00
49843;BME280;55559;48.898;9.184;2023-04-25T04:55:06;97755.59;;;7.81;100.00
49843;BME280;55559;48.898;9.184;2023-04-25T04:57:53;97758.50;;;7.78;100.00
49843;BME280;55559;48.898;9.184;2023-04-25T05:00:56;97763.78;;;7.69;100.00
49843;BME280;55559;48.898;9.184;2023-04-25T05:03:33;97775.19;;;7.59;100.00
49843;BME280;55559;48.898;9.184;2023-04-25T05:06:00;97776.97;;;7.49;100.00
49843;BME280;55559;48.898;9.184;2023-04-25T05:08:31;97770.81;;;7.39;100.00
49843;BME280;55559;48.898;9.184;2023-04-25T05:11:15;97777.09;;;7.48;100.00
49843;BME280;55559;48.898;9.184;2023-04-25T05:14:08;97788.41;;;7.59;100.00
49843;BME280;55559;48.898;9.184;2023-04-25T05:16:46;97778.91;;;7.57;100.00
49843;BME280;55559;48.898;9.184;2023-04-25T05:19:36;97781.56;;;7.57;100.00
49843;BME280;55559;48.898;9.184;2023-04-25T05:22:22;97772.03;;;7.85;100.00
49843;BME280;55559;48.898;9.184;2023-04-25T05:25:10;97771.34;;;7.83;100.00
49843;BME280;55559;48.898;9.184;2023-04-25T05:27:59;97773.44;;;7.99;100.00
49843;BME280;55559;48.898;9.184;2023-04-25T05:30:49;97769.41;;;7.95;100.00
49843;BME280;55559;48.898;9.184;2023-04-25T05:33:26;97774.56;;;8.16;100.00
49843;BME280;55559;48.898;9.184;2023-04-25T05:35:54;97770.38;;;8.04;100.00
49843;BME280;55559;48.898;9.184;2023-04-25T05:38:23;97777.78;;;8.19;100.00
49843;BME280;55559;48.898;9.184;2023-04-25T05:41:16;97772.47;;;8.19;100.00
49843;BME280;55559;48.898;9.184;2023-04-25T05:44:13;97774.31;;;8.29;100.00
49843;BME280;55559;48.898;9.184;2023-04-25T05:47:00;97775.28;;;8.08;100.00
49843;BME280;55559;48.898;9.184;2023-04-25T05:49:44;97775.28;;;8.08;100.00
49843;BME280;55559;48.898;9.184;2023-04-25T05:52:43;97775.81;;;8.02;100.00
49843;BME280;55559;48.898;9.184;2023-04-25T05:55:23;97775.13;;;8.00;100.00
49843;BME280;55559;48.898;9.184;2023-04-25T05:57:50;97776.00;;;8.20;100.00
49843;BME280;55559;48.898;9.184;2023-04-25T06:00:19;97779.06;;;8.35;100.00
49843;BME280;55559;48.898;9.184;2023-04-25T06:02:49;97778.06;;;8.36;100.00
49843;BME280;55559;48.898;9.184;2023-04-25T06:05:17;97779.78;;;8.47;100.00
49843;BME280;55559;48.898;9.184;2023-04-25T06:07:46;97778.66;;;8.49;100.00
49843;BME280;55559;48.898;9.184;2023-04-25T06:10:14;97780.16;;;8.71;100.00
49843;BME280;55559;48.898;9.184;2023-04-25T06:12:42;97778.25;;;8.64;100.00
49843;BME280;55559;48.898;9.184;2023-04-25T06:15:10;97778.03;;;9.04;100.00
49843;BME280;55559;48.898;9.184;2023-04-25T06:17:39;97776.09;;;8.87;100.00
49843;BME280;55559;48.898;9.184;2023-04-25T06:20:08;97766.47;;;8.96;100.00
49843;BME280;55559;48.898;9.184;2023-04-25T06:22:35;97772.94;;;10.04;100.00
49843;BME280;55559;48.898;9.184;2023-04-25T06:25:03;97763.34;;;9.75;100.00
49843;BME280;55559;48.898;9.184;2023-04-25T06:27:33;97763.53;;;9.36;100.00
49843;BME280;55559;48.898;9.184;2023-04-25T06:30:02;97774.47;;;9.51;100.00
49843;BME280;55559;48.898;9.184;2023-04-25T06:32:31;97773.34;;;9.26;100.00
49843;BME280;55559;48.898;9.184;2023-04-25T06:35:02;97765.78;;;9.31;100.00
49843;BME280;55559;48.898;9.184;2023-04-25T06:37:29;97767.44;;;9.32;100.00
49843;BME280;55559;48.898;9.184;2023-04-25T06:39:57;97768.16;;;9.62;100.00
49843;BME280;55559;48.898;9.184;2023-04-25T06:42:24;97762.66;;;9.91;100.00
49843;BME280;55559;48.898;9.184;2023-04-25T06:44:57;97763.84;;;10.24;100.00
49843;BME280;55559;48.898;9.184;2023-04-25T06:47:24;97753.44;;;10.31;100.00
49843;BME280;55559;48.898;9.184;2023-04-25T06:49:52;97764.69;;;9.79;100.00
49843;BME280;55559;48.898;9.184;2023-04-25T06:52:21;97768.94;;;10.18;100.00
49843;BME280;55559;48.898;9.184;2023-04-25T06:54:51;97766.41;;;9.98;100.00
49843;BME280;55559;48.898;9.184;2023-04-25T06:57:39;97762.25;;;10.14;100.00
49843;BME280;55559;48.898;9.184;2023-04-25T07:00:29;97769.38;;;9.67;100.00
49843;BME280;55559;48.898;9.184;2023-04-25T07:02:58;97769.00;;;10.08;100.00
49843;BME280;55559;48.898;9.184;2023-04-25T07:05:26;97772.44;;;9.45;100.00
49843;BME280;55559;48.898;9.184;2023-04-25T07:07:55;97776.28;;;9.33;100.00
49843;BME280;55559;48.898;9.184;2023-04-25T07:10:23;97771.94;;;9.59;100.00
49843;BME280;55559;48.898;9.184;2023-04-25T07:12:51;97775.63;;;9.48;100.00
49843;BME280;55559;48.898;9.184;2023-04-25T07:15:18;97772.88;;;9.03;100.00
49843;BME280;55559;48.898;9.184;2023-04-25T07:17:48;97773.00;;;9.01;100.00
49843;BME280;55559;48.898;9.184;2023-04-25T07:20:15;97769.41;;;8.92;100.00
49843;BME280;55559;48.898;9.184;2023-04-25T07:22:43;97778.47;;;8.80;100.00
49843;BME280;55559;48.898;9.184;2023-04-25T07:25:12;97779.19;;;8.82;100.00
49843;BME280;55559;48.898;9.184;2023-04-25T07:27:41;97787.72;;;8.76;100.00
49843;BME280;55559;48.898;9.184;2023-04-25T07:30:15;97779.75;;;8.66;100.00
49843;BME280;55559;48.898;9.184;2023-04-25T07:32:42;97796.66;;;8.65;100.00
49843;BME280;55559;48.898;9.184;2023-04-25T07:35:11;97792.59;;;8.61;100.00
49843;BME280;55559;48.898;9.184;2023-04-25T07:37:40;97788.72;;;8.55;100.00
49843;BME280;55559;48.898;9.184;2023-04-25T07:40:16;97794.13;;;8.44;100.00
49843;BME280;55559;48.898;9.184;2023-04-25T07:42:57;97794.56;;;8.49;100.00
49843;BME280;55559;48.898;9.184;2023-04-25T07:45:45;97794.38;;;8.41;100.00
49843;BME280;55559;48.898;9.184;2023-04-25T07:48:17;97808.47;;;8.32;100.00
49843;BME280;55559;48.898;9.184;2023-04-25T07:50:46;97807.22;;;8.36;100.00
49843;BME280;55559;48.898;9.184;2023-04-25T07:53:14;97802.78;;;8.36;100.00
49843;BME280;55559;48.898;9.184;2023-04-25T07:55:51;97816.28;;;8.33;100.00
49843;BME280;55559;48.898;9.184;2023-04-25T07:58:20;97821.56;;;8.14;100.00
49843;BME280;55559;48.898;9.184;2023-04-25T08:00:51;97820.56;;;8.05;100.00
49843;BME280;55559;48.898;9.184;2023-04-25T08:03:34;97821.00;;;8.20;100.00
49843;BME280;55559;48.898;9.184;2023-04-25T08:06:05;97823.09;;;8.26;100.00
49843;BME280;55559;48.898;9.184;2023-04-25T08:08:38;97826.88;;;8.33;100.00
49843;BME280;55559;48.898;9.184;2023-04-25T08:11:09;97829.28;;;8.46;100.00
49843;BME280;55559;48.898;9.184;2023-04-25T08:13:37;97833.44;;;8.39;100.00
49843;BME280;55559;48.898;9.184;2023-04-25T08:16:05;97828.31;;;8.47;100.00
49843;BME280;55559;48.898;9.184;2023-04-25T08:18:34;97841.28;;;8.50;100.00
49843;BME280;55559;48.898;9.184;2023-04-25T08:21:02;97842.66;;;8.54;100.00
49843;BME280;55559;48.898;9.184;2023-04-25T08:23:29;97843.03;;;8.30;100.00
49843;BME280;55559;48.898;9.184;2023-04-25T08:26:24;97846.13;;;8.35;100.00
49843;BME280;55559;48.898;9.184;2023-04-25T08:28:52;97848.75;;;8.26;100.00
49843;BME280;55559;48.898;9.184;2023-04-25T08:31:21;97852.94;;;8.18;100.00
49843;BME280;55559;48.898;9.184;2023-04-25T08:33:58;97859.88;;;8.10;100.00
49843;BME280;55559;48.898;9.184;2023-04-25T08:36:48;97859.13;;;7.88;100.00
49843;BME280;55559;48.898;9.184;2023-04-25T08:39:21;97870.34;;;7.71;100.00
49843;BME280;55559;48.898;9.184;2023-04-25T08:42:23;97868.84;;;7.78;100.00
49843;BME280;55559;48.898;9.184;2023-04-25T08:44:53;97881.13;;;7.89;100.00
49843;BME280;55559;48.898;9.184;2023-04-25T08:47:24;97882.63;;;7.81;100.00
49843;BME280;55559;48.898;9.184;2023-04-25T08:49:56;97887.22;;;7.79;100.00
49843;BME280;55559;48.898;9.184;2023-04-25T08:52:28;97889.88;;;7.79;100.00
49843;BME280;55559;48.898;9.184;2023-04-25T08:54:57;97893.78;;;7.85;100.00
49843;BME280;55559;48.898;9.184;2023-04-25T08:57:29;97893.13;;;7.93;100.00
49843;BME280;55559;48.898;9.184;2023-04-25T08:59:58;97896.22;;;8.08;100.00
49843;BME280;55559;48.898;9.184;2023-04-25T09:02:27;97901.13;;;8.12;100.00
49843;BME280;55559;48.898;9.184;2023-04-25T09:04:56;97909.94;;;8.23;100.00
49843;BME280;55559;48.898;9.184;2023-04-25T09:07:24;97904.91;;;8.19;100.00
49843;BME280;55559;48.898;9.184;2023-04-25T09:09:54;97907.84;;;8.16;100.00
49843;BME280;55559;48.898;9.184;2023-04-25T09:12:22;97915.78;;;8.26;100.00
49843;BME280;55559;48.898;9.184;2023-04-25T09:15:06;97923.97;;;8.44;100.00
49843;BME280;55559;48.898;9.184;2023-04-25T09:17:55;97921.97;;;8.36;100.00
49843;BME280;55559;48.898;9.184;2023-04-25T09:20:25;97924.69;;;8.56;100.00
49843;BME280;55559;48.898;9.184;2023-04-25T09:23:01;97923.84;;;8.46;100.00
49843;BME280;55559;48.898;9.184;2023-04-25T09:25:34;97929.97;;;8.46;100.00
49843;BME280;55559;48.898;9.184;2023-04-25T09:28:06;97934.47;;;8.65;100.00
49843;BME280;55559;48.898;9.184;2023-04-25T09:30:36;97930.72;;;8.78;100.00
49843;BME280;55559;48.898;9.184;2023-04-25T09:33:11;97938.97;;;8.84;100.00
49843;BME280;55559;48.898;9.184;2023-04-25T09:35:44;97936.72;;;8.99;100.00
49843;BME280;55559;48.898;9.184;2023-04-25T09:38:20;97934.34;;;8.96;100.00
49843;BME280;55559;48.898;9.184;2023-04-25T09:40:53;97942.19;;;9.07;100.00
49843;BME280;55559;48.898;9.184;2023-04-25T09:43:37;97945.78;;;9.06;100.00
49843;BME280;55559;48.898;9.184;2023-04-25T09:46:10;97945.78;;;9.06;100.00
49843;BME280;55559;48.898;9.184;2023-04-25T09:48:48;97947.59;;;8.86;100.00
49843;BME280;55559;48.898;9.184;2023-04-25T09:51:25;97958.63;;;8.72;100.00
49843;BME280;55559;48.898;9.184;2023-04-25T09:53:53;97954.81;;;8.55;100.00
49843;BME280;55559;48.898;9.184;2023-04-25T09:56:44;97949.69;;;8.83;100.00
49843;BME280;55559;48.898;9.184;2023-04-25T09:59:15;97959.59;;;8.71;100.00
49843;BME280;55559;48.898;9.184;2023-04-25T10:01:44;97966.00;;;8.28;100.00
49843;BME280;55559;48.898;9.184;2023-04-25T10:04:24;97982.63;;;8.30;100.00
49843;BME280;55559;48.898;9.184;2023-04-25T10:06:57;97982.41;;;7.91;100.00
49843;BME280;55559;48.898;9.184;2023-04-25T10:09:29;97998.44;;;7.26;100.00
49843;BME280;55559;48.898;9.184;2023-04-25T10:11:59;98012.63;;;7.25;100.00
49843;BME280;55559;48.898;9.184;2023-04-25T10:14:28;98009.81;;;7.17;100.00
49843;BME280;55559;48.898;9.184;2023-04-25T10:16:58;98004.78;;;7.35;100.00
49843;BME280;55559;48.898;9.184;2023-04-25T10:19:27;98017.56;;;7.51;100.00
49843;BME280;55559;48.898;9.184;2023-04-25T10:22:02;98022.00;;;7.29;100.00
49843;BME280;55559;48.898;9.184;2023-04-25T10:24:31;98029.06;;;6.96;100.00
49843;BME280;55559;48.898;9.184;2023-04-25T10:26:59;98039.13;;;7.14;100.00
49843;BME280;55559;48.898;9.184;2023-04-25T10:29:27;98033.31;;;6.76;100.00
49843;BME280;55559;48.898;9.184;2023-04-25T10:31:55;98043.47;;;6.48;100.00
49843;BME280;55559;48.898;9.184;2023-04-25T10:34:38;98047.03;;;6.59;100.00
49843;BME280;55559;48.898;9.184;2023-04-25T10:37:08;98053.31;;;6.46;100.00
49843;BME280;55559;48.898;9.184;2023-04-25T10:39:38;98048.16;;;6.56;100.00
49843;BME280;55559;48.898;9.184;2023-04-25T10:42:06;98048.25;;;6.43;100.00
49843;BME280;55559;48.898;9.184;2023-04-25T10:44:34;98049.31;;;6.41;100.00
49843;BME280;55559;48.898;9.184;2023-04-25T10:47:06;98045.59;;;6.77;100.00
49843;BME280;55559;48.898;9.184;2023-04-25T10:49:36;98052.44;;;6.80;100.00
49843;BME280;55559;48.898;9.184;2023-04-25T10:52:18;98054.09;;;6.92;100.00
49843;BME280;55559;48.898;9.184;2023-04-25T10:54:47;98045.00;;;7.17;100.00
49843;BME280;55559;48.898;9.184;2023-04-25T10:57:28;98053.84;;;8.02;100.00
49843;BME280;55559;48.898;9.184;2023-04-25T11:00:00;98045.63;;;8.05;100.00
49843;BME280;55559;48.898;9.184;2023-04-25T11:02:31;98044.72;;;7.74;100.00
49843;BME280;55559;48.898;9.184;2023-04-25T11:05:00;98058.16;;;7.82;100.00
49843;BME280;55559;48.898;9.184;2023-04-25T11:07:34;98062.75;;;8.01;100.00
49843;BME280;55559;48.898;9.184;2023-04-25T11:10:05;98062.66;;;8.12;100.00
49843;BME280;55559;48.898;9.184;2023-04-25T11:12:33;98068.75;;;8.03;100.00
49843;BME280;55559;48.898;9.184;2023-04-25T11:15:02;98061.00;;;7.90;100.00
49843;BME280;55559;48.898;9.184;2023-04-25T11:17:31;98059.84;;;7.83;100.00
49843;BME280;55559;48.898;9.184;2023-04-25T11:20:00;98066.31;;;7.90;100.00
49843;BME280;55559;48.898;9.184;2023-04-25T11:22:32;98074.56;;;7.97;100.00
49843;BME280;55559;48.898;9.184;2023-04-25T11:25:05;98082.25;;;8.00;100.00
49843;BME280;55559;48.898;9.184;2023-04-25T11:27:33;98079.81;;;8.08;100.00
49843;BME280;55559;48.898;9.184;2023-04-25T11:30:10;98085.63;;;7.49;100.00
49843;BME280;55559;48.898;9.184;2023-04-25T11:32:39;98087.91;;;7.10;100.00
49843;BME280;55559;48.898;9.184;2023-04-25T11:35:09;98083.28;;;7.34;100.00
49843;BME280;55559;48.898;9.184;2023-04-25T11:37:38;98083.84;;;7.49;100.00
49843;BME280;55559;48.898;9.184;2023-04-25T11:40:08;98079.72;;;7.56;100.00
49843;BME280;55559;48.898;9.184;2023-04-25T11:42:37;98079.56;;;7.69;100.00
49843;BME280;55559;48.898;9.184;2023-04-25T11:45:06;98084.75;;;7.59;100.00
49843;BME280;55559;48.898;9.184;2023-04-25T11:47:34;98089.88;;;7.40;100.00
49843;BME280;55559;48.898;9.184;2023-04-25T11:50:02;98082.06;;;7.38;100.00
49843;BME280;55559;48.898;9.184;2023-04-25T11:52:41;98084.78;;;7.48;100.00
49843;BME280;55559;48.898;9.184;2023-04-25T11:55:10;98086.81;;;7.56;100.00
49843;BME280;55559;48.898;9.184;2023-04-25T11:57:40;98092.38;;;7.74;100.00
49843;BME280;55559;48.898;9.184;2023-04-25T12:00:11;98097.47;;;8.08;100.00
49843;BME280;55559;48.898;9.184;2023-04-25T12:02:43;98090.84;;;7.92;100.00
49843;BME280;55559;48.898;9.184;2023-04-25T12:05:11;98095.34;;;8.23;100.00
49843;BME280;55559;48.898;9.184;2023-04-25T12:07:40;98096.28;;;8.12;100.00
49843;BME280;55559;48.898;9.184;2023-04-25T12:10:10;98097.16;;;8.43;100.00
49843;BME280;55559;48.898;9.184;2023-04-25T12:12:41;98096.78;;;8.27;100.00
49843;BME280;55559;48.898;9.184;2023-04-25T12:15:13;98105.97;;;8.01;100.00
49843;BME280;55559;48.898;9.184;2023-04-25T12:17:45;98104.66;;;7.96;100.00
49843;BME280;55559;48.898;9.184;2023-04-25T12:20:14;98102.66;;;8.09;100.00
49843;BME280;55559;48.898;9.184;2023-04-25T12:22:45;98100.97;;;8.50;100.00
49843;BME280;55559;48.898;9.184;2023-04-25T12:25:13;98105.28;;;8.82;100.00
49843;BME280;55559;48.898;9.184;2023-04-25T12:27:40;98098.09;;;9.13;100.00
49843;BME280;55559;48.898;9.184;2023-04-25T12:30:10;98097.44;;;9.50;100.00
49843;BME280;55559;48.898;9.184;2023-04-25T12:32:38;98086.72;;;9.72;100.00
49843;BME280;55559;48.898;9.184;2023-04-25T12:35:06;98098.03;;;9.74;100.00
49843;BME280;55559;48.898;9.184;2023-04-25T12:37:33;98099.00;;;10.02;100.00
49843;BME280;55559;48.898;9.184;2023-04-25T12:40:03;98097.97;;;10.13;100.00
49843;BME280;55559;48.898;9.184;2023-04-25T12:42:32;98098.91;;;10.31;100.00
49843;BME280;55559;48.898;9.184;2023-04-25T12:44:59;98095.03;;;10.16;100.00
49843;BME280;55559;48.898;9.184;2023-04-25T12:47:27;98092.66;;;10.32;100.00
49843;BME280;55559;48.898;9.184;2023-04-25T12:49:54;98099.69;;;10.61;100.00
49843;BME280;55559;48.898;9.184;2023-04-25T12:52:22;98100.56;;;10.52;100.00
49843;BME280;55559;48.898;9.184;2023-04-25T12:54:49;98098.13;;;10.68;100.00
49843;BME280;55559;48.898;9.184;2023-04-25T12:57:19;98101.84;;;10.85;100.00
49843;BME280;55559;48.898;9.184;2023-04-25T12:59:47;98093.91;;;11.49;100.00
49843;BME280;55559;48.898;9.184;2023-04-25T13:02:14;98109.19;;;9.87;100.00
49843;BME280;55559;48.898;9.184;2023-04-25T13:04:42;98104.44;;;10.00;100.00
49843;BME280;55559;48.898;9.184;2023-04-25T13:07:10;98099.94;;;10.20;100.00
49843;BME280;55559;48.898;9.184;2023-04-25T13:09:38;98106.63;;;10.15;100.00
49843;BME280;55559;48.898;9.184;2023-04-25T13:12:05;98113.66;;;9.57;100.00
49843;BME280;55559;48.898;9.184;2023-04-25T13:14:34;98102.91;;;9.49;100.00
49843;BME280;55559;48.898;9.184;2023-04-25T13:17:02;98105.16;;;9.73;100.00
49843;BME280;55559;48.898;9.184;2023-04-25T13:19:30;98108.19;;;9.39;100.00
49843;BME280;55559;48.898;9.184;2023-04-25T13:21:57;98111.16;;;9.36;100.00
49843;BME280;55559;48.898;9.184;2023-04-25T13:24:25;98114.63;;;9.37;100.00